createdAt,value
2023-04-18T00:02:24.958Z,14.85
2023-04-18T00:04:56.839Z,14.80
2023-04-18T00:07:27.138Z,14.71
2023-04-18T00:09:57.426Z,14.69
2023-04-18T00:12:30.299Z,14.72
2023-04-18T00:15:01.298Z,14.57
2023-04-18T00:17:32.044Z,14.86
2023-04-18T00:20:02.600Z,14.84
2023-04-18T00:22:32.966Z,14.69
2023-04-18T00:25:03.429Z,14.63
2023-04-18T00:27:36.335Z,14.59
2023-04-18T00:30:07.344Z,14.76
2023-04-18T00:32:37.677Z,14.51
2023-04-18T00:35:08.911Z,14.46
2023-04-18T00:37:39.167Z,14.38
2023-04-18T00:40:11.771Z,14.59
2023-04-18T00:42:44.622Z,14.59
2023-04-18T00:45:14.907Z,14.43
2023-04-18T00:47:45.283Z,14.51
2023-04-18T00:50:16.469Z,14.45
2023-04-18T00:52:47.478Z,14.61
2023-04-18T00:55:18.857Z,14.60
2023-04-18T00:57:51.779Z,14.46
2023-04-18T01:00:22.352Z,14.21
2023-04-18T01:02:54.164Z,14.36
2023-04-18T01:05:25.628Z,14.30
2023-04-18T01:07:58.943Z,14.24
2023-04-18T01:10:30.101Z,14.51
2023-04-18T01:13:18.755Z,14.56
2023-04-18T01:15:51.270Z,14.34
2023-04-18T01:18:22.771Z,14.61
2023-04-18T01:20:54.117Z,14.67
2023-04-18T01:23:24.671Z,14.70
2023-04-18T01:25:57.538Z,14.47
2023-04-18T01:28:28.025Z,14.74
2023-04-18T01:30:58.281Z,14.91
2023-04-18T01:33:28.546Z,14.72
2023-04-18T01:35:58.773Z,14.53
2023-04-18T01:38:29.142Z,14.76
2023-04-18T01:41:02.670Z,14.67
2023-04-18T01:43:33.108Z,14.36
2023-04-18T01:46:03.458Z,14.58
2023-04-18T01:48:33.775Z,14.35
2023-04-18T01:51:04.019Z,14.50
2023-04-18T01:53:34.470Z,14.33
2023-04-18T01:56:07.637Z,14.50
2023-04-18T01:58:38.167Z,14.22
2023-04-18T02:01:08.694Z,14.55
2023-04-18T02:03:39.347Z,14.41
2023-04-18T02:06:10.322Z,14.47
2023-04-18T02:08:40.651Z,14.62
2023-04-18T02:11:13.584Z,14.52
2023-04-18T02:13:43.823Z,14.38
2023-04-18T02:16:15.555Z,14.54
2023-04-18T02:18:46.582Z,14.68
2023-04-18T02:21:16.905Z,14.34
2023-04-18T02:23:47.659Z,14.28
2023-04-18T02:26:20.659Z,14.38
2023-04-18T02:28:51.155Z,14.45
2023-04-18T02:31:21.477Z,14.50
2023-04-18T02:33:51.823Z,14.24
2023-04-18T02:36:24.675Z,14.48
2023-04-18T02:38:55.053Z,14.28
2023-04-18T02:41:27.993Z,14.22
2023-04-18T02:43:58.403Z,14.47
2023-04-18T02:46:28.713Z,14.26
2023-04-18T02:48:58.992Z,14.36
2023-04-18T02:51:29.539Z,14.37
2023-04-18T02:53:59.895Z,14.19
2023-04-18T02:56:32.739Z,14.41
2023-04-18T02:59:03.006Z,14.36
2023-04-18T03:01:33.676Z,14.47
2023-04-18T03:04:04.137Z,14.44
2023-04-18T03:06:34.704Z,14.59
2023-04-18T03:09:05.728Z,14.68
2023-04-18T03:11:40.800Z,14.79
2023-04-18T03:14:11.351Z,14.75
2023-04-18T03:16:41.908Z,14.57
2023-04-18T03:19:12.535Z,14.64
2023-04-18T03:21:42.873Z,14.46
2023-04-18T03:24:13.483Z,14.56
2023-04-18T03:26:46.844Z,14.52
2023-04-18T03:29:17.101Z,14.43
2023-04-18T03:31:47.341Z,14.59
2023-04-18T03:34:17.764Z,14.59
2023-04-18T03:36:48.392Z,14.54
2023-04-18T03:39:18.633Z,14.62
2023-04-18T03:41:52.437Z,14.46
2023-04-18T03:44:22.726Z,14.52
2023-04-18T03:46:54.289Z,14.47
2023-04-18T03:49:24.539Z,14.65
2023-04-18T03:51:54.794Z,14.62
2023-04-18T03:54:25.254Z,14.64
2023-04-18T03:56:59.600Z,14.62
2023-04-18T03:59:30.170Z,14.62
2023-04-18T04:02:00.690Z,14.63
2023-04-18T04:04:31.089Z,14.60
2023-04-18T04:07:01.593Z,14.60
2023-04-18T04:09:31.929Z,14.57
2023-04-18T04:12:05.273Z,14.49
2023-04-18T04:14:35.676Z,14.59
2023-04-18T04:17:05.934Z,14.60
2023-04-18T04:19:38.600Z,14.58
2023-04-18T04:22:09.245Z,14.64
2023-04-18T04:24:40.722Z,14.74
2023-04-18T04:27:13.773Z,14.76
2023-04-18T04:29:44.535Z,14.84
2023-04-18T04:32:17.084Z,14.82
2023-04-18T04:34:47.361Z,14.76
2023-04-18T04:37:18.877Z,14.62
2023-04-18T04:39:49.236Z,14.90
2023-04-18T04:42:25.578Z,14.94
2023-04-18T04:44:56.808Z,14.86
2023-04-18T04:47:27.238Z,15.15
2023-04-18T04:49:57.937Z,15.00
2023-04-18T04:52:28.252Z,15.21
2023-04-18T04:54:58.569Z,15.24
2023-04-18T04:57:31.361Z,15.22
2023-04-18T05:00:01.836Z,15.35
2023-04-18T05:02:32.195Z,15.54
2023-04-18T05:05:02.548Z,15.62
2023-04-18T05:07:33.444Z,15.60
2023-04-18T05:10:04.486Z,15.68
2023-04-18T05:12:37.566Z,15.66
2023-04-18T05:15:09.075Z,15.95
2023-04-18T05:17:41.592Z,16.05
2023-04-18T05:20:13.124Z,16.12
2023-04-18T05:22:43.704Z,16.02
2023-04-18T05:25:16.837Z,16.31
2023-04-18T05:27:49.885Z,16.53
2023-04-18T05:30:20.788Z,16.44
2023-04-18T05:32:51.106Z,16.64
2023-04-18T05:35:21.711Z,16.99
2023-04-18T05:37:52.344Z,17.16
2023-04-18T05:40:22.881Z,17.26
2023-04-18T05:42:56.012Z,17.30
2023-04-18T05:45:26.231Z,17.14
2023-04-18T05:47:59.483Z,17.30
2023-04-18T05:50:29.833Z,17.67
2023-04-18T05:53:01.456Z,17.47
2023-04-18T05:55:31.798Z,17.52
2023-04-18T05:58:09.900Z,17.16
2023-04-18T06:00:40.613Z,17.43
2023-04-18T06:03:11.300Z,17.87
2023-04-18T06:05:42.118Z,17.97
2023-04-18T06:08:12.587Z,17.95
2023-04-18T06:10:42.853Z,17.51
2023-04-18T06:13:16.888Z,18.27
2023-04-18T06:15:47.191Z,17.89
2023-04-18T06:18:17.547Z,18.01
2023-04-18T06:20:47.827Z,18.02
2023-04-18T06:23:18.806Z,17.74
2023-04-18T06:25:51.536Z,17.61
2023-04-18T06:28:24.656Z,17.82
2023-04-18T06:30:55.020Z,17.70
2023-04-18T06:33:25.522Z,17.67
2023-04-18T06:35:56.074Z,17.84
2023-04-18T06:38:26.528Z,17.65
2023-04-18T06:40:56.995Z,17.58
2023-04-18T06:43:29.932Z,17.39
2023-04-18T06:46:00.289Z,17.15
2023-04-18T06:48:37.309Z,17.19
2023-04-18T06:51:08.046Z,17.03
2023-04-18T06:53:38.369Z,17.35
2023-04-18T06:56:09.826Z,17.44
2023-04-18T06:58:42.802Z,18.49
2023-04-18T07:01:13.169Z,18.61
2023-04-18T07:03:43.545Z,19.17
2023-04-18T07:06:13.948Z,19.31
2023-04-18T07:08:44.380Z,19.57
2023-04-18T07:11:18.862Z,19.66
2023-04-18T07:13:51.850Z,18.80
2023-04-18T07:16:22.551Z,18.89
2023-04-18T07:18:52.881Z,18.73
2023-04-18T07:21:25.876Z,18.40
2023-04-18T07:23:56.098Z,18.66
2023-04-18T07:26:27.764Z,18.97
2023-04-18T07:29:03.524Z,19.09
2023-04-18T07:31:34.338Z,19.28
2023-04-18T07:34:05.062Z,20.24
2023-04-18T07:36:35.612Z,19.68
2023-04-18T07:39:06.063Z,18.09
2023-04-18T07:41:36.481Z,18.49
2023-04-18T07:44:09.759Z,18.72
2023-04-18T07:46:40.206Z,18.75
2023-04-18T07:49:10.711Z,17.89
2023-04-18T07:51:41.119Z,17.80
2023-04-18T07:54:14.008Z,18.08
2023-04-18T07:56:46.926Z,17.87
2023-04-18T07:59:19.864Z,17.94
2023-04-18T08:01:50.207Z,17.63
2023-04-18T08:04:21.020Z,17.31
2023-04-18T08:06:51.389Z,17.58
2023-04-18T08:09:22.110Z,17.48
2023-04-18T08:11:52.343Z,17.47
2023-04-18T08:14:25.186Z,17.14
2023-04-18T08:16:55.522Z,17.75
2023-04-18T08:19:25.780Z,17.64
2023-04-18T08:21:56.065Z,18.12
2023-04-18T08:24:26.539Z,18.25
2023-04-18T08:26:57.696Z,18.86
2023-04-18T08:29:30.598Z,18.94
2023-04-18T08:32:01.231Z,18.95
2023-04-18T08:34:31.851Z,19.49
2023-04-18T08:37:02.243Z,20.05
2023-04-18T08:39:32.465Z,19.52
2023-04-18T08:42:03.793Z,19.69
2023-04-18T08:44:37.647Z,18.92
2023-04-18T08:47:07.870Z,18.92
2023-04-18T08:49:38.478Z,18.96
2023-04-18T08:52:14.243Z,19.49
2023-04-18T08:54:45.549Z,19.66
2023-04-18T08:57:18.552Z,18.64
2023-04-18T08:59:51.439Z,19.13
2023-04-18T09:02:22.242Z,18.89
2023-04-18T09:04:56.124Z,19.01
2023-04-18T09:07:30.650Z,18.62
2023-04-18T09:10:00.628Z,18.51
2023-04-18T09:12:32.828Z,18.74
2023-04-18T09:15:16.888Z,18.23
2023-04-18T09:17:52.530Z,18.79
2023-04-18T09:20:35.001Z,18.21
2023-04-18T09:23:10.976Z,18.10
2023-04-18T09:25:48.253Z,17.42
2023-04-18T09:28:27.205Z,18.11
2023-04-18T09:31:01.865Z,18.71
2023-04-18T09:33:37.289Z,18.77
2023-04-18T09:36:20.969Z,19.46
2023-04-18T09:38:54.620Z,19.75
2023-04-18T09:41:27.307Z,19.65
2023-04-18T09:44:14.964Z,18.94
2023-04-18T09:46:49.719Z,19.21
2023-04-18T09:49:20.922Z,19.63
2023-04-18T09:51:54.195Z,19.83
2023-04-18T09:54:27.432Z,19.31
2023-04-18T09:56:59.103Z,18.98
2023-04-18T09:59:40.548Z,19.44
2023-04-18T10:02:21.457Z,19.05
2023-04-18T10:04:54.347Z,18.75
2023-04-18T10:07:27.309Z,18.63
2023-04-18T10:09:57.596Z,19.44
2023-04-18T10:12:28.416Z,19.02
2023-04-18T10:14:59.181Z,18.69
2023-04-18T10:17:32.672Z,19.09
2023-04-18T10:20:11.334Z,19.21
2023-04-18T10:22:41.765Z,19.13
2023-04-18T10:25:12.515Z,18.36
2023-04-18T10:28:02.435Z,18.37
2023-04-18T10:30:57.892Z,18.69
2023-04-18T10:33:34.480Z,18.11
2023-04-18T10:36:20.959Z,18.19
2023-04-18T10:38:52.860Z,17.91
2023-04-18T10:41:25.452Z,17.49
2023-04-18T10:44:18.630Z,17.50
2023-04-18T10:47:18.890Z,18.19
2023-04-18T10:50:01.533Z,18.41
2023-04-18T10:52:32.572Z,18.65
2023-04-18T10:55:16.815Z,19.37
2023-04-18T10:57:48.623Z,19.41
2023-04-18T11:00:22.090Z,18.93
2023-04-18T11:02:56.323Z,19.11
2023-04-18T11:05:31.824Z,19.74
2023-04-18T11:08:02.155Z,20.11
2023-04-18T11:10:33.088Z,20.05
2023-04-18T11:13:05.697Z,20.13
2023-04-18T11:15:40.195Z,20.38
2023-04-18T11:18:12.494Z,20.71
2023-04-18T11:20:50.494Z,20.82
2023-04-18T11:23:24.115Z,20.77
2023-04-18T11:25:56.668Z,20.64
2023-04-18T11:28:28.701Z,19.65
2023-04-18T11:31:03.276Z,19.33
2023-04-18T11:33:33.736Z,19.61
2023-04-18T11:36:07.895Z,19.28
2023-04-18T11:38:40.283Z,18.89
2023-04-18T11:41:15.734Z,19.37
2023-04-18T11:43:47.237Z,19.33
2023-04-18T11:46:17.529Z,19.26
2023-04-18T11:48:50.406Z,19.26
2023-04-18T11:51:48.210Z,19.22
2023-04-18T11:54:40.672Z,19.31
2023-04-18T11:57:23.068Z,19.59
2023-04-18T11:59:55.650Z,19.50
2023-04-18T12:02:28.139Z,19.23
2023-04-18T12:05:01.254Z,19.97
2023-04-18T12:07:39.372Z,19.86
2023-04-18T12:10:28.738Z,19.83
2023-04-18T12:13:01.822Z,19.75
2023-04-18T12:15:34.172Z,20.00
2023-04-18T12:18:05.530Z,19.91
2023-04-18T12:20:40.033Z,20.13
2023-04-18T12:23:17.769Z,20.11
2023-04-18T12:25:48.708Z,20.31
2023-04-18T12:28:20.205Z,20.82
2023-04-18T12:30:50.805Z,20.58
2023-04-18T12:33:21.299Z,21.01
2023-04-18T12:35:52.805Z,21.05
2023-04-18T12:38:27.486Z,20.77
2023-04-18T12:40:57.783Z,20.81
2023-04-18T12:43:28.197Z,20.19
2023-04-18T12:45:59.681Z,20.66
2023-04-18T12:48:30.203Z,20.75
2023-04-18T12:51:03.591Z,20.69
2023-04-18T12:53:39.497Z,20.59
2023-04-18T12:56:10.157Z,21.04
2023-04-18T12:58:40.753Z,20.70
2023-04-18T13:01:11.139Z,20.22
2023-04-18T13:03:41.688Z,20.41
2023-04-18T13:06:14.671Z,20.30
2023-04-18T13:08:47.754Z,19.70
2023-04-18T13:11:18.083Z,19.60
2023-04-18T13:13:48.729Z,19.49
2023-04-18T13:16:19.367Z,20.06
2023-04-18T13:18:49.793Z,19.82
2023-04-18T13:21:20.218Z,20.05
2023-04-18T13:23:53.290Z,20.33
2023-04-18T13:26:23.778Z,20.24
2023-04-18T13:28:54.155Z,20.62
2023-04-18T13:31:24.488Z,20.51
2023-04-18T13:33:55.022Z,20.63
2023-04-18T13:36:27.903Z,19.58
2023-04-18T13:39:01.441Z,20.00
2023-04-18T13:41:35.545Z,20.10
2023-04-18T13:44:06.457Z,20.52
2023-04-18T13:46:36.926Z,20.76
2023-04-18T13:49:07.945Z,20.14
2023-04-18T13:51:38.622Z,19.77
2023-04-18T13:54:14.923Z,19.99
2023-04-18T13:56:45.771Z,20.04
2023-04-18T13:59:17.704Z,20.31
2023-04-18T14:01:49.654Z,20.35
2023-04-18T14:04:20.119Z,19.77
2023-04-18T14:06:51.216Z,19.88
2023-04-18T14:09:24.425Z,20.11
2023-04-18T14:11:54.734Z,19.94
2023-04-18T14:14:26.082Z,19.18
2023-04-18T14:16:56.564Z,19.68
2023-04-18T14:19:26.869Z,19.81
2023-04-18T14:21:59.339Z,20.17
2023-04-18T14:24:32.245Z,20.20
2023-04-18T14:27:02.780Z,20.15
2023-04-18T14:29:33.233Z,20.59
2023-04-18T14:32:04.224Z,20.79
2023-04-18T14:34:36.642Z,20.94
2023-04-18T14:37:07.835Z,20.93
2023-04-18T14:39:41.330Z,20.53
2023-04-18T14:42:11.558Z,20.37
2023-04-18T14:44:41.835Z,20.29
2023-04-18T14:47:12.346Z,20.42
2023-04-18T14:49:42.686Z,20.06
2023-04-18T14:52:13.179Z,20.38
2023-04-18T14:54:46.456Z,20.43
2023-04-18T14:57:19.526Z,20.56
2023-04-18T14:59:51.071Z,20.52
2023-04-18T15:02:21.956Z,20.63
2023-04-18T15:04:53.686Z,20.63
2023-04-18T15:07:24.086Z,20.53
2023-04-18T15:09:57.079Z,20.37
2023-04-18T15:12:27.791Z,20.42
2023-04-18T15:14:58.489Z,20.46
2023-04-18T15:17:29.607Z,20.44
2023-04-18T15:20:06.498Z,20.47
2023-04-18T15:22:37.645Z,20.56
2023-04-18T15:25:16.456Z,20.54
2023-04-18T15:27:47.158Z,20.52
2023-04-18T15:30:18.024Z,20.36
2023-04-18T15:32:50.535Z,20.15
2023-04-18T15:35:20.816Z,20.24
2023-04-18T15:37:54.035Z,20.17
2023-04-18T15:40:27.307Z,20.14
2023-04-18T15:42:59.885Z,19.91
2023-04-18T15:45:30.247Z,20.07
2023-04-18T15:48:00.942Z,19.76
2023-04-18T15:50:33.410Z,19.54
2023-04-18T15:53:04.773Z,19.23
2023-04-18T15:55:37.968Z,19.35
2023-04-18T15:58:08.322Z,19.13
2023-04-18T16:00:38.657Z,18.90
2023-04-18T16:03:10.598Z,18.49
2023-04-18T16:05:41.386Z,18.58
2023-04-18T16:08:12.026Z,18.40
2023-04-18T16:10:45.467Z,18.27
2023-04-18T16:13:16.282Z,18.60
2023-04-18T16:15:46.712Z,18.54
2023-04-18T16:18:17.078Z,18.52
2023-04-18T16:20:48.653Z,18.56
2023-04-18T16:23:20.683Z,18.16
2023-04-18T16:25:55.365Z,18.55
2023-04-18T16:28:26.572Z,18.43
2023-04-18T16:30:56.864Z,18.23
2023-04-18T16:33:27.441Z,18.21
2023-04-18T16:36:00.116Z,17.98
2023-04-18T16:38:30.445Z,17.99
2023-04-18T16:41:06.249Z,18.22
2023-04-18T16:43:38.205Z,18.03
2023-04-18T16:46:08.824Z,17.95
2023-04-18T16:48:39.646Z,17.64
2023-04-18T16:51:10.056Z,17.82
2023-04-18T16:53:40.303Z,17.80
2023-04-18T16:56:13.261Z,17.53
2023-04-18T16:58:44.076Z,17.56
2023-04-18T17:01:14.333Z,17.29
2023-04-18T17:03:45.138Z,17.24
2023-04-18T17:06:19.669Z,17.04
2023-04-18T17:08:53.748Z,17.21
2023-04-18T17:11:26.774Z,17.45
2023-04-18T17:13:56.971Z,17.15
2023-04-18T17:16:27.271Z,17.35
2023-04-18T17:18:57.587Z,16.98
2023-04-18T17:21:28.426Z,17.25
2023-04-18T17:23:59.530Z,16.90
2023-04-18T17:26:32.711Z,16.93
2023-04-18T17:29:04.552Z,16.61
2023-04-18T17:31:35.240Z,16.83
2023-04-18T17:34:06.299Z,16.65
2023-04-18T17:36:36.705Z,16.95
2023-04-18T17:39:08.417Z,16.64
2023-04-18T17:41:41.767Z,16.69
2023-04-18T17:44:12.070Z,16.37
2023-04-18T17:46:43.613Z,16.50
2023-04-18T17:49:14.569Z,16.60
2023-04-18T17:51:45.160Z,16.42
2023-04-18T17:54:15.498Z,16.50
2023-04-18T17:56:48.521Z,16.51
2023-04-18T17:59:18.812Z,16.46
2023-04-18T18:01:51.617Z,16.31
2023-04-18T18:04:24.820Z,16.63
2023-04-18T18:06:57.543Z,16.60
2023-04-18T18:09:28.060Z,16.68
2023-04-18T18:12:00.879Z,16.80
2023-04-18T18:14:31.188Z,16.70
2023-04-18T18:17:01.481Z,16.49
2023-04-18T18:19:31.922Z,16.50
2023-04-18T18:22:02.169Z,16.73
2023-04-18T18:24:32.422Z,16.68
2023-04-18T18:27:05.277Z,16.41
2023-04-18T18:29:35.556Z,16.43
2023-04-18T18:32:06.105Z,16.46
2023-04-18T18:34:36.494Z,16.66
2023-04-18T18:37:06.735Z,16.79
2023-04-18T18:39:37.056Z,16.85
2023-04-18T18:42:09.966Z,16.92
2023-04-18T18:44:40.298Z,16.85
2023-04-18T18:47:10.715Z,16.61
2023-04-18T18:49:41.040Z,16.73
2023-04-18T18:52:11.372Z,16.74
2023-04-18T18:54:41.896Z,16.77
2023-04-18T18:57:14.847Z,16.75
2023-04-18T18:59:45.104Z,16.73
2023-04-18T19:02:15.479Z,16.72
2023-04-18T19:04:46.011Z,16.74
2023-04-18T19:07:16.395Z,16.71
2023-04-18T19:09:46.958Z,16.60
2023-04-18T19:12:19.920Z,16.53
2023-04-18T19:14:52.898Z,16.63
2023-04-18T19:17:25.197Z,16.58
2023-04-18T19:19:58.122Z,16.65
2023-04-18T19:22:28.511Z,16.55
2023-04-18T19:25:01.046Z,16.61
2023-04-18T19:27:34.294Z,16.68
2023-04-18T19:30:04.646Z,16.64
2023-04-18T19:32:36.274Z,16.60
2023-04-18T19:35:07.123Z,16.54
2023-04-18T19:37:37.389Z,16.48
2023-04-18T19:40:09.305Z,16.40
2023-04-18T19:42:42.404Z,16.63
2023-04-18T19:45:15.345Z,16.42
2023-04-18T19:47:47.881Z,16.56
2023-04-18T19:50:18.254Z,16.64
2023-04-18T19:52:48.567Z,16.51
2023-04-18T19:55:18.939Z,16.49
2023-04-18T19:57:52.033Z,16.64
2023-04-18T20:00:23.780Z,16.58
2023-04-18T20:02:54.715Z,16.49
2023-04-18T20:05:25.446Z,16.49
2023-04-18T20:07:55.700Z,16.38
2023-04-18T20:10:26.290Z,16.53
2023-04-18T20:12:59.767Z,16.41
2023-04-18T20:15:30.687Z,16.47
2023-04-18T20:18:01.235Z,16.37
2023-04-18T20:20:31.941Z,16.36
2023-04-18T20:23:03.540Z,16.21
2023-04-18T20:25:34.829Z,16.17
2023-04-18T20:28:10.874Z,16.16
2023-04-18T20:30:49.226Z,16.22
2023-04-18T20:33:19.602Z,16.15
2023-04-18T20:35:49.992Z,16.15
2023-04-18T20:38:20.334Z,16.08
2023-04-18T20:40:53.078Z,16.02
2023-04-18T20:43:27.029Z,15.96
2023-04-18T20:45:58.108Z,15.88
2023-04-18T20:48:28.902Z,15.92
2023-04-18T20:50:59.197Z,15.91
2023-04-18T20:53:30.079Z,15.91
2023-04-18T20:56:00.448Z,15.94
2023-04-18T20:58:36.403Z,15.83
2023-04-18T21:01:07.302Z,15.83
2023-04-18T21:03:37.803Z,15.72
2023-04-18T21:06:08.355Z,15.71
2023-04-18T21:08:39.581Z,15.65
2023-04-18T21:11:10.150Z,15.66
2023-04-18T21:13:43.041Z,15.76
2023-04-18T21:16:13.310Z,15.69
2023-04-18T21:18:43.659Z,15.65
2023-04-18T21:21:13.922Z,15.42
2023-04-18T21:23:45.415Z,15.40
2023-04-18T21:26:16.598Z,15.56
2023-04-18T21:29:01.223Z,15.49
2023-04-18T21:31:33.956Z,15.40
2023-04-18T21:34:05.710Z,15.46
2023-04-18T21:36:36.222Z,15.22
2023-04-18T21:39:06.863Z,15.40
2023-04-18T21:41:37.138Z,15.36
2023-04-18T21:44:10.788Z,15.32
2023-04-18T21:46:41.092Z,15.14
2023-04-18T21:49:11.531Z,15.08
2023-04-18T21:51:42.035Z,15.13
2023-04-18T21:54:12.535Z,15.03
2023-04-18T21:56:43.181Z,15.02
2023-04-18T21:59:16.421Z,14.98
2023-04-18T22:01:47.184Z,14.91
2023-04-18T22:04:21.201Z,14.76
2023-04-18T22:06:54.317Z,14.73
2023-04-18T22:09:24.722Z,14.68
2023-04-18T22:11:57.177Z,14.57
2023-04-18T22:14:30.136Z,14.59
2023-04-18T22:17:00.565Z,14.51
2023-04-18T22:19:31.578Z,14.42
2023-04-18T22:22:02.167Z,14.37
2023-04-18T22:24:32.501Z,14.30
2023-04-18T22:27:04.346Z,14.21
2023-04-18T22:29:37.275Z,14.12
2023-04-18T22:32:10.413Z,14.04
2023-04-18T22:34:40.848Z,13.96
2023-04-18T22:37:11.060Z,13.90
2023-04-18T22:39:41.376Z,13.93
2023-04-18T22:42:11.834Z,13.91
2023-04-18T22:44:45.003Z,13.91
2023-04-18T22:47:15.359Z,13.85
2023-04-18T22:49:46.160Z,13.81
2023-04-18T22:52:16.901Z,13.82
2023-04-18T22:54:47.127Z,13.85
2023-04-18T22:57:17.395Z,13.74
2023-04-18T22:59:50.350Z,13.84
2023-04-18T23:02:20.760Z,13.80
2023-04-18T23:04:51.295Z,13.82
2023-04-18T23:07:21.727Z,13.74
2023-04-18T23:09:52.044Z,13.81
2023-04-18T23:12:22.317Z,13.68
2023-04-18T23:14:55.197Z,13.72
2023-04-18T23:17:25.432Z,13.85
2023-04-18T23:19:56.004Z,13.76
2023-04-18T23:22:26.968Z,13.75
2023-04-18T23:24:57.830Z,13.65
2023-04-18T23:27:28.184Z,13.69
2023-04-18T23:30:01.162Z,13.56
2023-04-18T23:32:33.090Z,13.61
2023-04-18T23:35:04.437Z,13.53
2023-04-18T23:37:34.756Z,13.55
2023-04-18T23:40:07.035Z,13.52
2023-04-18T23:42:37.679Z,13.51
2023-04-18T23:45:11.365Z,13.44
2023-04-18T23:47:41.778Z,13.39
2023-04-18T23:50:13.019Z,13.34
2023-04-18T23:52:43.318Z,13.32
2023-04-18T23:55:13.594Z,13.25
2023-04-18T23:57:44.579Z,13.26
